Port Isaac, United Kingdom
Current Conditions -  °F | °C
As of 6:50 AM on Thursday 23 Oct 2014 (Local Time) from EGHQ Reporting Station
Scattered Clouds Scattered Clouds  
Wind Chill: 54°   Ceiling: Unl
Heat Index: 54°   Visibility: 6mi
Dew Point: 52°   Wind: 8mph
Humidity: 94%   Direction: 210°SSW
Pressure: 30.15"   Gusts: NA
Location:  50.59°N, 4.83°W
Report Text: EGHQ 230550Z 21007KT 9999 SCT006 12/11 Q1021
Loading
Personal Weather Stations






























Interactive Weather Map
Tropical Storm Tracking
New forecast layout! Learn more

10-Day Weather Forecast

Advertisements
Track Severe Weather on mobile